createdAt,value
2017-07-11T14:45:08.685Z,100341.84
2017-07-11T14:47:37.089Z,100341.63
2017-07-11T14:50:05.510Z,100341.77
2017-07-11T14:52:33.906Z,100343.30
2017-07-11T14:55:02.697Z,100343.16
2017-07-11T14:57:31.804Z,100341.94
2017-07-11T15:00:00.485Z,100339.37
2017-07-11T15:02:29.276Z,100341.17
2017-07-11T15:04:58.879Z,100338.59
2017-07-11T15:07:27.976Z,100335.55
2017-07-11T15:09:56.765Z,100333.69
2017-07-11T15:12:25.571Z,100325.25
2017-07-11T15:14:53.971Z,100318.46
2017-07-11T15:17:22.501Z,100315.56
2017-07-11T15:19:51.210Z,100321.09
2017-07-11T15:22:19.997Z,100317.84
2017-07-11T15:24:48.793Z,100312.07
2017-07-11T15:27:17.172Z,100301.48
2017-07-11T15:29:46.263Z,100302.17
2017-07-11T15:32:15.055Z,100301.92
2017-07-11T15:34:43.830Z,100296.80
2017-07-11T15:37:12.633Z,100300.02
2017-07-11T15:39:41.427Z,100297.39
2017-07-11T15:42:09.822Z,100289.15
2017-07-11T15:44:38.210Z,100296.22
2017-07-11T15:47:07.509Z,100287.00
2017-07-11T15:49:35.950Z,100292.25
2017-07-11T15:52:04.834Z,100295.30
2017-07-11T15:54:33.542Z,100287.22
2017-07-11T15:57:02.347Z,100278.39
2017-07-11T15:59:30.759Z,100280.10
2017-07-11T16:01:59.172Z,100275.33
2017-07-11T16:04:27.582Z,100273.66
2017-07-11T16:06:55.964Z,100279.67
2017-07-11T16:09:24.363Z,100277.91
2017-07-11T16:11:52.763Z,100277.07
2017-07-11T16:14:21.163Z,100285.72
2017-07-11T16:16:49.585Z,100282.39
2017-07-11T16:19:18.262Z,100281.78
2017-07-11T16:21:46.666Z,100281.41
2017-07-11T16:24:15.087Z,100283.56
2017-07-11T16:26:43.483Z,100283.23
2017-07-11T16:29:11.890Z,100286.34
2017-07-11T16:31:40.272Z,100286.81
2017-07-11T16:34:09.166Z,100291.80
2017-07-11T16:36:38.077Z,100290.39
2017-07-11T16:39:48.806Z,100291.89
2017-07-11T16:42:17.189Z,100289.76
2017-07-11T16:44:45.591Z,100296.25
2017-07-11T16:47:14.003Z,100293.45
2017-07-11T16:49:42.826Z,100288.89
2017-07-11T16:52:11.251Z,100285.80
2017-07-11T16:54:39.643Z,100290.99
2017-07-11T16:57:08.090Z,100288.06
2017-07-11T16:59:36.516Z,100287.17
2017-07-11T17:02:05.023Z,100289.38
2017-07-11T17:04:33.446Z,100298.52
2017-07-11T17:07:02.949Z,100297.45
2017-07-11T17:09:31.359Z,100292.73
2017-07-11T17:11:59.785Z,100301.87
2017-07-11T17:14:28.248Z,100300.95
2017-07-11T17:16:56.710Z,100300.33
2017-07-11T17:19:25.123Z,100293.00
2017-07-11T17:21:53.500Z,100296.70
2017-07-11T17:24:21.920Z,100295.63
2017-07-11T17:26:50.306Z,100299.03
2017-07-11T17:29:19.485Z,100301.13
2017-07-11T17:31:47.893Z,100300.14
2017-07-11T17:34:17.037Z,100305.15
2017-07-11T17:36:45.439Z,100304.57
2017-07-11T17:39:14.533Z,100302.97
2017-07-11T17:41:43.334Z,100299.84
2017-07-11T17:44:11.725Z,100306.78
2017-07-11T17:46:40.147Z,100306.20
2017-07-11T17:49:08.543Z,100304.00
2017-07-11T17:51:37.250Z,100299.69
2017-07-11T17:54:06.034Z,100304.94
2017-07-11T17:56:35.227Z,100298.73
2017-07-11T17:59:04.025Z,100302.81
2017-07-11T18:01:33.103Z,100306.96
2017-07-11T18:04:01.518Z,100312.58
2017-07-11T18:06:29.926Z,100310.69
2017-07-11T18:08:58.321Z,100307.73
2017-07-11T18:11:26.713Z,100314.34
2017-07-11T18:13:55.639Z,100314.02
2017-07-11T18:16:24.431Z,100306.88
2017-07-11T18:18:53.226Z,100306.78
2017-07-11T18:21:22.656Z,100309.50
2017-07-11T18:23:51.050Z,100313.95
2017-07-11T18:26:19.449Z,100322.83
2017-07-11T18:28:47.848Z,100330.86
2017-07-11T18:31:16.663Z,100324.72
2017-07-11T18:33:45.079Z,100328.42
2017-07-11T18:36:13.701Z,100333.42
2017-07-11T18:38:42.498Z,100332.70
2017-07-11T18:41:11.293Z,100340.27
2017-07-11T18:43:40.663Z,100339.02
2017-07-11T18:46:09.079Z,100343.67
2017-07-11T18:48:37.771Z,100344.25
2017-07-11T18:51:06.161Z,100350.92
2017-07-11T18:53:34.585Z,100352.90
2017-07-11T18:56:02.987Z,100351.27
2017-07-11T18:58:31.402Z,100356.34
2017-07-11T19:00:59.793Z,100356.98
2017-07-11T19:03:28.345Z,100352.92
2017-07-11T19:05:57.130Z,100356.36
2017-07-11T19:08:25.935Z,100361.74
2017-07-11T19:10:54.350Z,100365.06
2017-07-11T19:13:22.749Z,100364.36
2017-07-11T19:15:51.149Z,100372.97
2017-07-11T19:18:19.555Z,100380.59
2017-07-11T19:20:47.970Z,100381.37
2017-07-11T19:23:16.357Z,100385.50
2017-07-11T19:25:44.946Z,100393.64
2017-07-11T19:28:13.673Z,100389.31
2017-07-11T19:30:42.670Z,100402.91
2017-07-11T19:33:12.485Z,100407.67
2017-07-11T19:35:42.074Z,100408.34
2017-07-11T19:38:10.789Z,100415.72
2017-07-11T19:40:39.178Z,100418.75
2017-07-11T19:43:07.595Z,100419.18
2017-07-11T19:45:35.994Z,100425.54
2017-07-11T19:48:04.734Z,100427.73
2017-07-11T19:50:33.121Z,100433.94
2017-07-11T19:53:02.438Z,100428.83
2017-07-11T19:55:31.310Z,100436.72
2017-07-11T19:57:59.705Z,100435.87
2017-07-11T20:00:29.010Z,100435.63
2017-07-11T20:02:57.402Z,100442.18
2017-07-11T20:05:25.810Z,100436.34
2017-07-11T20:07:54.211Z,100438.80
2017-07-11T20:10:22.990Z,100443.42
2017-07-11T20:12:51.792Z,100445.00
2017-07-11T20:15:20.228Z,100440.02
2017-07-11T20:17:48.654Z,100436.15
2017-07-11T20:20:17.785Z,100435.91
2017-07-11T20:22:46.204Z,100438.16
2017-07-11T20:25:14.649Z,100443.76
2017-07-11T20:27:44.074Z,100442.02
2017-07-11T20:30:12.798Z,100446.84
2017-07-11T20:32:41.611Z,100444.20
2017-07-11T20:35:10.273Z,100457.47
2017-07-11T20:37:39.374Z,100449.11
2017-07-11T20:40:08.187Z,100454.59
2017-07-11T20:42:37.005Z,100456.63
2017-07-11T20:45:05.394Z,100451.35
2017-07-11T20:47:33.796Z,100453.91
2017-07-11T20:50:02.194Z,100456.83
2017-07-11T20:52:30.611Z,100452.52
2017-07-11T20:54:59.001Z,100460.30
2017-07-11T20:57:27.656Z,100455.44
2017-07-11T20:59:56.422Z,100459.88
2017-07-11T21:02:24.823Z,100455.10
2017-07-11T21:04:53.319Z,100462.29
2017-07-11T21:07:21.973Z,100468.95
2017-07-11T21:09:50.784Z,100468.03
2017-07-11T21:12:19.184Z,100464.68
2017-07-11T21:14:47.584Z,100469.49
2017-07-11T21:17:15.973Z,100478.75
2017-07-11T21:19:44.692Z,100477.34
2017-07-11T21:22:13.477Z,100481.59
2017-07-11T21:24:42.273Z,100475.78
2017-07-11T21:27:10.674Z,100474.48
2017-07-11T21:29:39.087Z,100469.83
2017-07-11T21:32:07.542Z,100473.47
2017-07-11T21:34:35.945Z,100479.16
2017-07-11T21:37:04.359Z,100483.63
2017-07-11T21:39:33.470Z,100479.08
2017-07-11T21:42:02.272Z,100481.86
2017-07-11T21:44:30.661Z,100481.48
2017-07-11T21:46:59.326Z,100489.42
2017-07-11T21:49:28.109Z,100497.16
2017-07-11T21:51:57.510Z,100495.67
2017-07-11T21:54:27.276Z,100492.31
2017-07-11T21:56:55.684Z,100493.66
2017-07-11T21:59:24.076Z,100492.55
2017-07-11T22:01:53.186Z,100488.20
2017-07-11T22:04:21.964Z,100487.42
2017-07-11T22:06:50.957Z,100495.91
2017-07-11T22:09:19.740Z,100492.55
2017-07-11T22:11:48.440Z,100489.13
2017-07-11T22:14:16.853Z,100478.38
2017-07-11T22:16:45.246Z,100485.28
2017-07-11T22:19:13.877Z,100483.97
2017-07-11T22:21:42.757Z,100489.39
2017-07-11T22:24:11.199Z,100490.19
2017-07-11T22:26:40.526Z,100493.21
2017-07-11T22:29:09.252Z,100492.26
2017-07-11T22:31:38.037Z,100490.42
2017-07-11T22:34:07.846Z,100490.35
2017-07-11T22:36:36.631Z,100485.91
2017-07-11T22:39:05.739Z,100484.52
2017-07-11T22:41:34.408Z,100481.55
2017-07-11T22:44:02.810Z,100478.80
2017-07-11T22:46:31.494Z,100490.77
2017-07-11T22:49:00.469Z,100486.48
2017-07-11T22:51:28.866Z,100482.46
2017-07-11T22:53:57.651Z,100490.84
2017-07-11T22:56:27.058Z,100497.64
2017-07-11T22:58:55.845Z,100501.20
2017-07-11T23:01:24.635Z,100495.88
2017-07-11T23:03:53.628Z,100499.62
2017-07-11T23:06:22.422Z,100497.13
2017-07-11T23:08:51.209Z,100497.42
2017-07-11T23:11:20.606Z,100492.72
2017-07-11T23:13:49.773Z,100490.28
2017-07-11T23:16:18.166Z,100487.95
2017-07-11T23:18:46.757Z,100485.88
2017-07-11T23:21:15.154Z,100491.96
2017-07-11T23:23:43.959Z,100489.09
2017-07-11T23:26:12.379Z,100486.36
2017-07-11T23:28:40.994Z,100486.44
2017-07-11T23:31:09.782Z,100487.59
2017-07-11T23:33:38.577Z,100482.77
2017-07-11T23:36:07.391Z,100483.88
2017-07-11T23:38:36.069Z,100485.41
2017-07-11T23:41:04.525Z,100485.53
2017-07-11T23:43:33.325Z,100485.03
2017-07-11T23:46:02.322Z,100493.06
2017-07-11T23:48:31.893Z,100495.83
2017-07-11T23:51:00.275Z,100493.55
2017-07-11T23:53:28.686Z,100495.10
2017-07-11T23:55:57.486Z,100488.25
2017-07-11T23:58:26.587Z,100487.25
